createdAt,value
2023-05-01T00:00:29.751Z,63.21
2023-05-01T00:01:29.761Z,63.30
2023-05-01T00:02:29.896Z,63.43
2023-05-01T00:03:29.924Z,63.51
2023-05-01T00:04:29.830Z,63.92
2023-05-01T00:05:29.818Z,63.76
2023-05-01T00:06:29.853Z,64.05
2023-05-01T00:07:29.866Z,64.96
2023-05-01T00:08:29.940Z,64.53
2023-05-01T00:09:30.039Z,64.44
2023-05-01T00:10:30.132Z,64.18
2023-05-01T00:11:30.419Z,64.25
2023-05-01T00:12:30.194Z,64.09
2023-05-01T00:13:30.276Z,64.27
2023-05-01T00:14:30.298Z,64.33
2023-05-01T00:15:30.378Z,64.07
2023-05-01T00:16:30.480Z,63.90
2023-05-01T00:17:30.499Z,63.74
2023-05-01T00:18:30.543Z,63.79
2023-05-01T00:19:30.612Z,63.62
2023-05-01T00:20:30.700Z,63.66
2023-05-01T00:21:30.749Z,63.59
2023-05-01T00:22:30.819Z,63.50
2023-05-01T00:23:30.922Z,63.45
2023-05-01T00:24:30.970Z,63.47
2023-05-01T00:25:31.024Z,63.35
2023-05-01T00:26:31.146Z,63.40
2023-05-01T00:27:31.130Z,63.37
2023-05-01T00:28:31.175Z,63.30
2023-05-01T00:29:31.213Z,63.23
2023-05-01T00:30:31.206Z,63.26
2023-05-01T00:31:31.279Z,63.13
2023-05-01T00:32:31.274Z,63.26
2023-05-01T00:33:31.275Z,63.69
2023-05-01T00:34:31.266Z,63.42
2023-05-01T00:35:31.334Z,63.19
2023-05-01T00:36:31.276Z,63.23
2023-05-01T00:37:31.303Z,62.88
2023-05-01T00:38:31.321Z,62.38
2023-05-01T00:39:31.308Z,62.18
2023-05-01T00:40:31.319Z,62.20
2023-05-01T00:41:31.334Z,62.11
2023-05-01T00:42:31.372Z,62.06
2023-05-01T00:43:31.365Z,62.07
2023-05-01T00:44:31.398Z,62.04
2023-05-01T00:45:31.447Z,61.92
2023-05-01T00:46:31.544Z,61.95
2023-05-01T00:47:31.501Z,62.10
2023-05-01T00:48:31.457Z,62.26
2023-05-01T00:49:31.485Z,62.72
2023-05-01T00:50:31.510Z,62.60
2023-05-01T00:51:31.497Z,62.52
2023-05-01T00:52:31.506Z,62.56
2023-05-01T00:53:31.529Z,62.48
2023-05-01T00:54:31.575Z,62.39
2023-05-01T00:55:31.621Z,62.23
2023-05-01T00:56:31.642Z,62.16
2023-05-01T00:57:31.699Z,62.25
2023-05-01T00:58:31.735Z,62.38
2023-05-01T00:59:31.720Z,62.39
2023-05-01T01:00:31.776Z,62.34
2023-05-01T01:01:31.764Z,62.18
2023-05-01T01:02:31.742Z,62.15
2023-05-01T01:03:31.747Z,61.87
2023-05-01T01:04:31.860Z,61.93
2023-05-01T01:05:31.761Z,62.03
2023-05-01T01:06:31.791Z,62.09
2023-05-01T01:07:31.768Z,62.11
2023-05-01T01:08:32.762Z,62.01
2023-05-01T01:09:31.811Z,61.78
2023-05-01T01:10:31.788Z,61.93
2023-05-01T01:11:31.802Z,61.88
2023-05-01T01:12:31.826Z,61.96
2023-05-01T01:13:31.854Z,62.12
2023-05-01T01:14:31.903Z,62.11
2023-05-01T01:15:31.914Z,62.03
2023-05-01T01:16:32.010Z,62.08
2023-05-01T01:17:32.094Z,62.07
2023-05-01T01:18:31.971Z,62.15
2023-05-01T01:19:32.081Z,62.12
2023-05-01T01:20:32.059Z,62.19
2023-05-01T01:21:32.117Z,62.28
2023-05-01T01:22:32.150Z,62.30
2023-05-01T01:23:32.186Z,62.47
2023-05-01T01:24:32.232Z,62.56
2023-05-01T01:25:32.220Z,62.97
2023-05-01T01:26:32.235Z,62.99
2023-05-01T01:27:32.936Z,63.07
2023-05-01T01:28:32.265Z,63.08
2023-05-01T01:29:32.353Z,63.08
2023-05-01T01:30:32.534Z,63.41
2023-05-01T01:31:32.365Z,63.42
2023-05-01T01:32:32.437Z,63.74
2023-05-01T01:33:32.383Z,63.87
2023-05-01T01:34:32.421Z,63.77
2023-05-01T01:35:32.421Z,63.48
2023-05-01T01:36:32.413Z,63.12
2023-05-01T01:37:32.439Z,63.04
2023-05-01T01:38:32.469Z,63.15
2023-05-01T01:39:32.496Z,63.20
2023-05-01T01:40:32.522Z,63.21
2023-05-01T01:41:32.532Z,63.24
2023-05-01T01:42:32.549Z,63.24
2023-05-01T01:43:32.555Z,63.29
2023-05-01T01:44:32.542Z,63.55
2023-05-01T01:45:32.562Z,63.52
2023-05-01T01:46:32.684Z,63.52
2023-05-01T01:47:32.711Z,63.57
2023-05-01T01:48:32.637Z,63.75
2023-05-01T01:49:32.660Z,63.66
2023-05-01T01:50:32.715Z,63.69
2023-05-01T01:51:32.689Z,63.78
2023-05-01T01:52:32.707Z,63.50
2023-05-01T01:53:32.730Z,63.45
2023-05-01T01:54:32.770Z,63.32
2023-05-01T01:55:32.805Z,63.30
2023-05-01T01:56:32.789Z,63.26
2023-05-01T01:57:32.807Z,63.17
2023-05-01T01:58:32.820Z,63.06
2023-05-01T01:59:32.845Z,63.10
2023-05-01T02:00:32.891Z,63.09
2023-05-01T02:01:32.926Z,63.07
2023-05-01T02:02:32.969Z,63.14
2023-05-01T02:03:32.970Z,63.14
2023-05-01T02:04:32.923Z,63.18
2023-05-01T02:05:33.003Z,63.08
2023-05-01T02:06:33.021Z,63.10
2023-05-01T02:07:32.963Z,63.02
2023-05-01T02:08:32.992Z,62.92
2023-05-01T02:09:33.004Z,62.76
2023-05-01T02:10:33.026Z,62.67
2023-05-01T02:11:33.046Z,62.73
2023-05-01T02:12:33.065Z,62.67
2023-05-01T02:13:33.121Z,62.55
2023-05-01T02:14:33.115Z,62.55
2023-05-01T02:15:33.139Z,62.36
2023-05-01T02:16:33.171Z,62.45
2023-05-01T02:17:33.231Z,62.58
2023-05-01T02:18:33.220Z,62.36
2023-05-01T02:19:33.222Z,62.32
2023-05-01T02:20:33.264Z,62.37
2023-05-01T02:21:33.281Z,62.41
2023-05-01T02:22:33.305Z,62.50
2023-05-01T02:23:33.328Z,62.59
2023-05-01T02:24:33.354Z,62.49
2023-05-01T02:25:33.388Z,62.25
2023-05-01T02:26:33.419Z,62.13
2023-05-01T02:27:33.446Z,62.26
2023-05-01T02:28:33.483Z,62.27
2023-05-01T02:29:33.493Z,62.40
2023-05-01T02:30:33.538Z,62.20
2023-05-01T02:31:33.593Z,62.30
2023-05-01T02:32:33.592Z,62.68
2023-05-01T02:33:33.593Z,62.44
2023-05-01T02:34:33.653Z,62.40
2023-05-01T02:35:33.668Z,62.79
2023-05-01T02:36:33.704Z,63.04
2023-05-01T02:37:33.723Z,63.18
2023-05-01T02:38:33.755Z,62.89
2023-05-01T02:39:33.788Z,62.76
2023-05-01T02:40:33.826Z,63.15
2023-05-01T02:41:33.868Z,63.26
2023-05-01T02:42:33.873Z,63.83
2023-05-01T02:43:33.899Z,63.82
2023-05-01T02:44:33.916Z,63.44
2023-05-01T02:45:33.979Z,63.39
2023-05-01T02:46:34.081Z,63.33
2023-05-01T02:47:34.072Z,63.34
2023-05-01T02:48:34.012Z,63.30
2023-05-01T02:49:34.033Z,63.22
2023-05-01T02:50:34.072Z,63.16
2023-05-01T02:51:34.076Z,63.15
2023-05-01T02:52:34.089Z,63.20
2023-05-01T02:53:34.125Z,63.19
2023-05-01T02:54:34.143Z,63.27
2023-05-01T02:55:34.165Z,63.24
2023-05-01T02:56:34.176Z,63.55
2023-05-01T02:57:34.202Z,63.31
2023-05-01T02:58:34.229Z,63.24
2023-05-01T02:59:34.252Z,63.22
2023-05-01T03:00:34.280Z,63.02
2023-05-01T03:01:34.339Z,63.09
2023-05-01T03:02:34.388Z,63.05
2023-05-01T03:03:34.383Z,62.95
2023-05-01T03:04:34.433Z,63.08
2023-05-01T03:05:34.453Z,62.86
2023-05-01T03:06:34.513Z,63.18
2023-05-01T03:07:34.453Z,63.04
2023-05-01T03:08:34.471Z,62.90
2023-05-01T03:09:34.495Z,62.69
2023-05-01T03:10:34.516Z,62.97
2023-05-01T03:11:34.561Z,63.00
2023-05-01T03:12:34.589Z,63.02
2023-05-01T03:13:34.657Z,63.10
2023-05-01T03:14:34.628Z,63.26
2023-05-01T03:15:34.647Z,63.25
2023-05-01T03:16:34.708Z,63.27
2023-05-01T03:17:34.727Z,63.21
2023-05-01T03:18:34.738Z,63.18
2023-05-01T03:19:34.711Z,63.25
2023-05-01T03:20:34.769Z,63.22
2023-05-01T03:21:34.775Z,63.27
2023-05-01T03:22:34.820Z,63.31
2023-05-01T03:23:34.793Z,63.43
2023-05-01T03:24:34.818Z,63.46
2023-05-01T03:25:34.818Z,63.32
2023-05-01T03:26:34.856Z,63.32
2023-05-01T03:27:34.877Z,63.21
2023-05-01T03:28:34.889Z,63.26
2023-05-01T03:29:34.897Z,63.24
2023-05-01T03:30:34.924Z,63.24
2023-05-01T03:31:34.970Z,63.23
2023-05-01T03:32:34.978Z,63.27
2023-05-01T03:33:34.949Z,63.27
2023-05-01T03:34:34.980Z,63.18
2023-05-01T03:35:35.056Z,63.18
2023-05-01T03:36:35.047Z,63.06
2023-05-01T03:37:35.024Z,62.97
2023-05-01T03:38:35.058Z,63.12
2023-05-01T03:39:35.071Z,63.33
2023-05-01T03:40:35.079Z,63.08
2023-05-01T03:41:35.098Z,63.10
2023-05-01T03:42:35.097Z,63.05
2023-05-01T03:43:35.115Z,63.08
2023-05-01T03:44:35.161Z,63.02
2023-05-01T03:45:35.199Z,62.98
2023-05-01T03:46:35.241Z,63.02
2023-05-01T03:47:35.297Z,63.07
2023-05-01T03:48:35.281Z,63.18
2023-05-01T03:49:35.305Z,63.20
2023-05-01T03:50:35.328Z,63.26
2023-05-01T03:51:35.361Z,63.28
2023-05-01T03:52:35.350Z,63.24
2023-05-01T03:53:35.369Z,63.23
2023-05-01T03:54:35.403Z,63.83
2023-05-01T03:55:35.376Z,63.57
2023-05-01T03:56:35.427Z,63.55
2023-05-01T03:57:35.401Z,63.49
2023-05-01T03:58:35.399Z,63.46
2023-05-01T03:59:35.435Z,63.48
2023-05-01T04:00:35.456Z,63.51
2023-05-01T04:01:35.493Z,63.44
2023-05-01T04:02:35.603Z,63.45
2023-05-01T04:03:35.613Z,63.46
2023-05-01T04:04:35.715Z,63.45
2023-05-01T04:05:35.646Z,63.42
2023-05-01T04:06:35.692Z,63.42
2023-05-01T04:07:35.688Z,63.62
2023-05-01T04:08:35.697Z,63.43
2023-05-01T04:09:35.706Z,63.51
2023-05-01T04:10:35.758Z,63.50
2023-05-01T04:11:35.765Z,63.47
2023-05-01T04:12:35.777Z,63.52
2023-05-01T04:13:35.825Z,63.50
2023-05-01T04:14:35.855Z,63.55
2023-05-01T04:15:35.893Z,63.50
2023-05-01T04:16:36.027Z,63.32
2023-05-01T04:17:36.124Z,63.44
2023-05-01T04:18:36.097Z,63.37
2023-05-01T04:19:36.128Z,63.48
2023-05-01T04:20:36.172Z,63.50
2023-05-01T04:21:36.235Z,63.62
2023-05-01T04:22:36.238Z,63.62
2023-05-01T04:23:36.261Z,63.67
2023-05-01T04:24:36.280Z,63.60
2023-05-01T04:25:36.324Z,63.64
2023-05-01T04:26:36.355Z,63.69
2023-05-01T04:27:36.322Z,63.70
2023-05-01T04:28:36.332Z,63.69
2023-05-01T04:29:36.336Z,63.60
2023-05-01T04:30:36.341Z,63.49
2023-05-01T04:31:36.507Z,63.50
2023-05-01T04:32:36.409Z,63.42
2023-05-01T04:33:36.391Z,63.47
2023-05-01T04:34:36.396Z,63.76
2023-05-01T04:35:36.418Z,63.71
2023-05-01T04:36:36.486Z,63.68
2023-05-01T04:37:36.484Z,63.71
2023-05-01T04:38:36.520Z,63.65
2023-05-01T04:39:36.547Z,63.62
2023-05-01T04:40:36.595Z,63.56
2023-05-01T04:41:36.664Z,63.74
2023-05-01T04:42:36.682Z,63.73
2023-05-01T04:43:36.699Z,63.75
2023-05-01T04:44:36.756Z,63.95
2023-05-01T04:45:36.832Z,63.92
2023-05-01T04:46:36.996Z,63.97
2023-05-01T04:47:37.019Z,63.98
2023-05-01T04:48:37.101Z,64.06
2023-05-01T04:49:37.121Z,64.18
2023-05-01T04:50:37.166Z,64.20
2023-05-01T04:51:37.270Z,64.23
2023-05-01T04:52:37.253Z,64.36
2023-05-01T04:53:37.279Z,64.47
2023-05-01T04:54:37.310Z,64.49
2023-05-01T04:55:37.343Z,64.53
2023-05-01T04:56:37.400Z,64.53
2023-05-01T04:57:37.390Z,64.48
2023-05-01T04:58:37.437Z,64.31
2023-05-01T04:59:37.432Z,64.29
2023-05-01T05:00:37.460Z,64.51
2023-05-01T05:01:37.604Z,64.32
2023-05-01T05:02:37.641Z,64.35
2023-05-01T05:03:37.771Z,64.10
2023-05-01T05:04:37.578Z,63.77
2023-05-01T05:05:37.642Z,64.11
2023-05-01T05:06:37.694Z,63.94
2023-05-01T05:07:37.651Z,63.94
2023-05-01T05:08:37.673Z,63.96
2023-05-01T05:09:37.667Z,63.90
2023-05-01T05:10:37.675Z,63.50
2023-05-01T05:11:37.724Z,63.24
2023-05-01T05:12:37.729Z,63.08
2023-05-01T05:13:37.729Z,62.95
2023-05-01T05:14:37.789Z,62.70
2023-05-01T05:15:37.763Z,62.67
2023-05-01T05:16:38.233Z,62.56
2023-05-01T05:17:37.879Z,62.52
2023-05-01T05:18:37.849Z,62.32
2023-05-01T05:19:37.898Z,62.22
2023-05-01T05:20:37.924Z,62.08
2023-05-01T05:21:38.024Z,61.93
2023-05-01T05:22:38.026Z,61.93
2023-05-01T05:23:38.073Z,61.78
2023-05-01T05:24:38.116Z,61.93
2023-05-01T05:25:38.174Z,61.91
2023-05-01T05:26:38.168Z,61.96
2023-05-01T05:27:38.185Z,62.25
2023-05-01T05:28:38.139Z,62.20
2023-05-01T05:29:38.163Z,62.32
2023-05-01T05:30:38.244Z,62.32
2023-05-01T05:31:38.369Z,62.17
2023-05-01T05:32:38.362Z,62.17
2023-05-01T05:33:38.349Z,62.10
2023-05-01T05:34:38.408Z,62.06
2023-05-01T05:35:38.454Z,61.95
2023-05-01T05:36:38.562Z,61.94
2023-05-01T05:37:38.563Z,61.79
2023-05-01T05:38:38.616Z,61.84
2023-05-01T05:39:38.672Z,61.78
2023-05-01T05:40:38.708Z,61.71
2023-05-01T05:41:38.772Z,61.56
2023-05-01T05:42:38.793Z,61.57
2023-05-01T05:43:38.832Z,61.62
2023-05-01T05:44:38.886Z,61.43
2023-05-01T05:45:39.003Z,61.35
2023-05-01T05:46:39.113Z,61.37
2023-05-01T05:47:39.132Z,61.16
2023-05-01T05:48:39.090Z,61.21
2023-05-01T05:49:39.141Z,61.34
2023-05-01T05:50:39.192Z,61.62
2023-05-01T05:51:39.264Z,61.49
2023-05-01T05:52:39.296Z,61.74
2023-05-01T05:53:39.357Z,61.37
2023-05-01T05:54:39.419Z,61.48
2023-05-01T05:55:39.464Z,61.43
2023-05-01T05:56:39.516Z,61.48
2023-05-01T05:57:39.545Z,61.37
2023-05-01T05:58:39.600Z,61.37
2023-05-01T05:59:39.634Z,61.36
2023-05-01T06:00:39.681Z,61.44
2023-05-01T06:01:39.721Z,61.32
2023-05-01T06:02:40.040Z,61.17
2023-05-01T06:03:40.096Z,61.16
2023-05-01T06:04:39.850Z,61.06
2023-05-01T06:05:39.899Z,60.95
2023-05-01T06:06:39.886Z,60.97
2023-05-01T06:07:39.846Z,60.87
2023-05-01T06:08:39.861Z,60.68
2023-05-01T06:09:39.879Z,60.40
2023-05-01T06:10:39.908Z,60.33
2023-05-01T06:11:39.955Z,60.66
2023-05-01T06:12:42.086Z,60.45
2023-05-01T06:13:39.952Z,60.19
2023-05-01T06:14:39.898Z,59.88
2023-05-01T06:15:39.914Z,60.08
2023-05-01T06:16:39.949Z,60.07
2023-05-01T06:17:39.893Z,59.97
2023-05-01T06:18:39.847Z,59.73
2023-05-01T06:19:39.801Z,59.92
2023-05-01T06:20:39.784Z,59.64
2023-05-01T06:21:39.765Z,59.39
2023-05-01T06:22:39.736Z,59.22
2023-05-01T06:23:39.700Z,59.34
2023-05-01T06:24:39.699Z,58.95
2023-05-01T06:25:39.695Z,58.96
2023-05-01T06:26:39.629Z,58.89
2023-05-01T06:27:39.604Z,58.48
2023-05-01T06:28:39.573Z,58.35
2023-05-01T06:29:39.561Z,58.35
2023-05-01T06:30:39.536Z,58.04
2023-05-01T06:31:39.571Z,57.90
2023-05-01T06:32:39.554Z,58.01
2023-05-01T06:33:39.482Z,57.61
2023-05-01T06:34:39.485Z,57.71
2023-05-01T06:35:39.421Z,57.39
2023-05-01T06:36:39.404Z,57.31
2023-05-01T06:37:39.459Z,57.47
2023-05-01T06:38:39.344Z,57.35
2023-05-01T06:39:39.313Z,57.20
2023-05-01T06:40:39.290Z,57.01
2023-05-01T06:41:39.257Z,56.82
2023-05-01T06:42:39.237Z,56.83
2023-05-01T06:43:39.213Z,56.83
2023-05-01T06:44:39.189Z,56.87
2023-05-01T06:45:39.147Z,56.83
2023-05-01T06:46:39.241Z,56.43
2023-05-01T06:47:39.097Z,56.29
2023-05-01T06:48:39.060Z,56.27
2023-05-01T06:49:39.039Z,56.25
2023-05-01T06:50:39.049Z,56.10
2023-05-01T06:51:38.962Z,56.22
2023-05-01T06:52:38.934Z,56.16
2023-05-01T06:53:38.902Z,56.12
2023-05-01T06:54:38.885Z,55.94
2023-05-01T06:55:38.814Z,55.94
2023-05-01T06:56:38.779Z,55.71
2023-05-01T06:57:38.737Z,55.69
2023-05-01T06:58:38.698Z,55.78
2023-05-01T06:59:38.656Z,55.50
2023-05-01T07:00:38.739Z,55.24
2023-05-01T07:01:38.657Z,54.83
2023-05-01T07:02:38.793Z,54.82
2023-05-01T07:03:38.722Z,54.33
2023-05-01T07:04:38.669Z,53.91
2023-05-01T07:05:38.704Z,53.87
2023-05-01T07:06:38.741Z,53.74
2023-05-01T07:07:42.252Z,53.68
2023-05-01T07:08:38.665Z,53.51
2023-05-01T07:09:38.612Z,53.20
2023-05-01T07:10:40.532Z,53.27
2023-05-01T07:11:38.551Z,53.31
2023-05-01T07:12:38.564Z,53.60
2023-05-01T07:13:38.459Z,53.31
2023-05-01T07:14:38.414Z,53.39
2023-05-01T07:15:38.364Z,53.31
2023-05-01T07:16:38.376Z,53.37
2023-05-01T07:17:38.344Z,53.37
2023-05-01T07:18:38.272Z,53.28
2023-05-01T07:19:38.227Z,53.39
2023-05-01T07:20:38.201Z,53.42
2023-05-01T07:21:38.143Z,53.33
2023-05-01T07:22:38.137Z,53.41
2023-05-01T07:23:38.090Z,53.31
2023-05-01T07:24:38.047Z,53.19
2023-05-01T07:25:38.004Z,53.27
2023-05-01T07:26:37.971Z,52.71
2023-05-01T07:27:37.933Z,53.07
2023-05-01T07:28:37.877Z,53.20
2023-05-01T07:29:37.837Z,53.47
2023-05-01T07:30:37.802Z,53.44
2023-05-01T07:31:37.899Z,53.14
2023-05-01T07:32:37.794Z,53.02
2023-05-01T07:33:37.654Z,53.01
2023-05-01T07:34:37.666Z,52.86
2023-05-01T07:35:37.670Z,52.96
2023-05-01T07:36:37.684Z,52.74
2023-05-01T07:37:37.679Z,52.63
2023-05-01T07:38:38.490Z,52.18
2023-05-01T07:39:37.700Z,52.05
2023-05-01T07:40:37.698Z,51.92
2023-05-01T07:41:37.708Z,51.95
2023-05-01T07:42:37.748Z,52.19
2023-05-01T07:43:37.720Z,52.05
2023-05-01T07:44:37.744Z,52.04
2023-05-01T07:45:37.802Z,51.88
2023-05-01T07:46:38.024Z,51.35
2023-05-01T07:47:37.893Z,51.55
2023-05-01T07:48:39.013Z,50.96
2023-05-01T07:49:37.722Z,50.57
2023-05-01T07:50:37.696Z,50.52
2023-05-01T07:51:37.707Z,50.36
2023-05-01T07:52:37.696Z,50.24
2023-05-01T07:53:37.669Z,49.60
2023-05-01T07:54:37.676Z,49.64
2023-05-01T07:55:37.635Z,49.19
2023-05-01T07:56:37.565Z,49.28
2023-05-01T07:57:37.514Z,48.61
2023-05-01T07:58:37.443Z,49.11
2023-05-01T07:59:37.372Z,48.89
2023-05-01T08:00:37.306Z,48.32
2023-05-01T08:01:37.282Z,47.91
2023-05-01T08:02:37.354Z,47.47
2023-05-01T08:03:37.352Z,47.76
2023-05-01T08:04:37.281Z,47.21
2023-05-01T08:05:37.082Z,47.49
2023-05-01T08:06:37.133Z,48.14
2023-05-01T08:07:36.998Z,47.68
2023-05-01T08:08:36.962Z,47.36
2023-05-01T08:09:36.902Z,47.58
2023-05-01T08:10:36.898Z,47.11
2023-05-01T08:11:36.816Z,46.77
2023-05-01T08:12:36.806Z,46.79
2023-05-01T08:13:36.723Z,46.66
2023-05-01T08:14:36.672Z,46.33
2023-05-01T08:15:36.675Z,46.13
2023-05-01T08:16:36.660Z,45.94
2023-05-01T08:17:36.662Z,45.76
2023-05-01T08:18:36.590Z,45.89
2023-05-01T08:19:36.567Z,45.96
2023-05-01T08:20:36.541Z,45.59
2023-05-01T08:21:36.498Z,45.29
2023-05-01T08:22:36.440Z,45.60
2023-05-01T08:23:36.393Z,45.16
2023-05-01T08:24:36.348Z,45.32
2023-05-01T08:25:36.330Z,45.61
2023-05-01T08:26:36.294Z,45.17
2023-05-01T08:27:36.229Z,44.42
2023-05-01T08:28:36.166Z,45.11
2023-05-01T08:29:36.139Z,45.00
2023-05-01T08:30:36.138Z,44.81
2023-05-01T08:31:36.240Z,44.93
2023-05-01T08:32:36.128Z,44.53
2023-05-01T08:33:36.032Z,44.72
2023-05-01T08:34:35.974Z,44.47
2023-05-01T08:35:35.890Z,43.99
2023-05-01T08:36:35.822Z,43.66
2023-05-01T08:37:35.746Z,42.93
2023-05-01T08:38:35.685Z,43.62
2023-05-01T08:39:35.613Z,43.79
2023-05-01T08:40:35.544Z,43.48
2023-05-01T08:41:35.497Z,43.22
2023-05-01T08:42:35.470Z,42.38
2023-05-01T08:43:35.423Z,42.24
2023-05-01T08:44:35.391Z,42.24
2023-05-01T08:45:35.353Z,42.64
2023-05-01T08:46:35.401Z,42.13
2023-05-01T08:47:35.300Z,41.69
2023-05-01T08:48:35.227Z,42.07
2023-05-01T08:49:35.182Z,41.57
2023-05-01T08:50:35.155Z,41.38
2023-05-01T08:51:35.090Z,41.24
2023-05-01T08:52:35.061Z,40.66
2023-05-01T08:53:34.948Z,40.90
2023-05-01T08:54:34.843Z,40.89
2023-05-01T08:55:34.734Z,41.22
2023-05-01T08:56:34.654Z,41.32
2023-05-01T08:57:34.596Z,41.42
2023-05-01T08:58:34.556Z,42.29
2023-05-01T08:59:34.481Z,41.93
2023-05-01T09:00:34.413Z,41.58
2023-05-01T09:01:34.418Z,40.75
2023-05-01T09:02:34.354Z,40.63
2023-05-01T09:03:34.203Z,40.07
2023-05-01T09:04:34.055Z,39.97
2023-05-01T09:05:33.952Z,39.38
2023-05-01T09:06:34.005Z,39.37
2023-05-01T09:07:33.806Z,39.00
2023-05-01T09:08:33.665Z,39.20
2023-05-01T09:09:33.560Z,40.01
2023-05-01T09:10:33.480Z,39.75
2023-05-01T09:11:33.358Z,39.74
2023-05-01T09:12:33.354Z,40.06
2023-05-01T09:13:33.276Z,38.94
2023-05-01T09:14:33.216Z,38.99
2023-05-01T09:15:33.149Z,38.54
2023-05-01T09:16:33.133Z,38.23
2023-05-01T09:17:33.104Z,38.10
2023-05-01T09:18:32.957Z,38.06
2023-05-01T09:19:32.901Z,37.94
2023-05-01T09:20:32.835Z,37.32
2023-05-01T09:21:32.731Z,37.46
2023-05-01T09:22:32.686Z,37.40
2023-05-01T09:23:32.571Z,37.26
2023-05-01T09:24:32.480Z,37.85
2023-05-01T09:25:32.431Z,37.99
2023-05-01T09:26:32.369Z,37.83
2023-05-01T09:27:32.309Z,37.82
2023-05-01T09:28:32.234Z,37.06
2023-05-01T09:29:32.152Z,36.94
2023-05-01T09:30:32.082Z,36.40
2023-05-01T09:31:31.951Z,36.52
2023-05-01T09:32:31.865Z,36.56
2023-05-01T09:33:31.737Z,36.20
2023-05-01T09:34:31.594Z,36.05
2023-05-01T09:35:31.507Z,36.27
2023-05-01T09:36:31.438Z,36.22
2023-05-01T09:37:31.353Z,35.30
2023-05-01T09:38:31.240Z,35.17
2023-05-01T09:39:31.136Z,35.38
2023-05-01T09:40:31.059Z,35.33
2023-05-01T09:41:30.928Z,35.45
2023-05-01T09:42:30.817Z,35.34
2023-05-01T09:43:30.700Z,35.12
2023-05-01T09:44:30.592Z,36.27
2023-05-01T09:45:30.493Z,35.48
2023-05-01T09:46:30.510Z,35.69
2023-05-01T09:47:30.433Z,35.42
2023-05-01T09:48:32.001Z,35.39
2023-05-01T09:49:30.170Z,35.85
2023-05-01T09:50:30.054Z,35.59
2023-05-01T09:51:29.955Z,35.91
2023-05-01T09:52:29.852Z,35.99
2023-05-01T09:53:29.740Z,35.35
2023-05-01T09:54:29.566Z,35.32
2023-05-01T09:55:29.473Z,35.55
2023-05-01T09:56:29.312Z,35.15
2023-05-01T09:57:29.194Z,35.19
2023-05-01T09:58:29.072Z,35.40
2023-05-01T09:59:28.931Z,36.06
2023-05-01T10:00:28.802Z,36.13
2023-05-01T10:01:28.695Z,35.39
2023-05-01T10:02:28.690Z,35.12
2023-05-01T10:03:28.544Z,34.90
2023-05-01T10:04:28.276Z,34.71
2023-05-01T10:05:28.138Z,34.70
2023-05-01T10:06:28.080Z,34.39
2023-05-01T10:07:27.869Z,34.17
2023-05-01T10:08:27.752Z,34.05
2023-05-01T10:09:27.601Z,34.90
2023-05-01T10:10:27.470Z,34.64
2023-05-01T10:11:27.387Z,34.86
2023-05-01T10:12:27.193Z,34.68
2023-05-01T10:13:27.059Z,34.31
2023-05-01T10:14:27.239Z,35.02
2023-05-01T10:15:27.191Z,34.82
2023-05-01T10:16:26.680Z,34.95
2023-05-01T10:17:26.598Z,34.92
2023-05-01T10:18:26.459Z,35.13
2023-05-01T10:19:26.345Z,35.35
2023-05-01T10:20:26.238Z,35.38
2023-05-01T10:21:26.141Z,35.65
2023-05-01T10:22:26.055Z,35.97
2023-05-01T10:23:25.947Z,36.09
2023-05-01T10:24:25.855Z,36.96
2023-05-01T10:25:25.739Z,37.12
2023-05-01T10:26:25.638Z,38.92
2023-05-01T10:27:25.645Z,40.64
2023-05-01T10:28:25.570Z,41.55
2023-05-01T10:29:25.518Z,42.13
2023-05-01T10:30:25.491Z,42.81
2023-05-01T10:31:25.596Z,44.25
2023-05-01T10:32:25.534Z,44.80
2023-05-01T10:33:25.453Z,44.81
2023-05-01T10:34:27.063Z,44.93
2023-05-01T10:35:25.371Z,44.47
2023-05-01T10:36:25.323Z,45.02
2023-05-01T10:37:25.220Z,45.87
2023-05-01T10:38:25.160Z,46.40
2023-05-01T10:39:25.100Z,45.90
2023-05-01T10:40:25.049Z,47.24
2023-05-01T10:41:25.003Z,46.11
2023-05-01T10:42:24.994Z,47.94
2023-05-01T10:43:24.921Z,47.30
2023-05-01T10:44:25.308Z,49.19
2023-05-01T10:45:24.843Z,49.38
2023-05-01T10:46:24.881Z,49.30
2023-05-01T10:47:24.953Z,49.97
2023-05-01T10:48:24.705Z,49.10
2023-05-01T10:49:24.654Z,49.80
2023-05-01T10:50:24.618Z,49.82
2023-05-01T10:51:27.256Z,50.16
2023-05-01T10:52:24.485Z,50.28
2023-05-01T10:53:24.432Z,50.41
2023-05-01T10:54:24.376Z,50.12
2023-05-01T10:55:24.344Z,49.92
2023-05-01T10:56:24.254Z,49.38
2023-05-01T10:57:24.199Z,50.07
2023-05-01T10:58:24.140Z,50.90
2023-05-01T10:59:24.094Z,50.09
2023-05-01T11:00:24.029Z,49.17
2023-05-01T11:01:23.993Z,49.85
2023-05-01T11:02:24.015Z,49.84
2023-05-01T11:03:23.853Z,49.52
2023-05-01T11:04:23.804Z,48.92
2023-05-01T11:05:35.763Z,48.69
2023-05-01T11:06:23.785Z,48.93
2023-05-01T11:07:23.624Z,49.32
2023-05-01T11:08:23.528Z,49.91
2023-05-01T11:09:23.452Z,49.14
2023-05-01T11:10:23.391Z,49.54
2023-05-01T11:11:23.339Z,49.11
2023-05-01T11:12:23.333Z,49.34
2023-05-01T11:13:23.232Z,49.35
2023-05-01T11:14:23.161Z,49.29
2023-05-01T11:15:23.106Z,48.64
2023-05-01T11:16:23.077Z,49.05
2023-05-01T11:17:23.010Z,49.06
2023-05-01T11:18:22.950Z,49.06
2023-05-01T11:19:22.877Z,49.31
2023-05-01T11:20:22.805Z,49.18
2023-05-01T11:21:22.742Z,49.14
2023-05-01T11:22:22.786Z,48.98
2023-05-01T11:23:22.621Z,48.79
2023-05-01T11:24:22.535Z,48.98
2023-05-01T11:25:22.480Z,48.78
2023-05-01T11:26:22.395Z,48.01
2023-05-01T11:27:22.322Z,48.69
2023-05-01T11:28:22.250Z,48.71
2023-05-01T11:29:22.162Z,48.70
2023-05-01T11:30:22.088Z,48.92
2023-05-01T11:31:22.036Z,47.62
2023-05-01T11:32:22.043Z,46.38
2023-05-01T11:33:21.907Z,46.42
2023-05-01T11:34:21.757Z,46.34
2023-05-01T11:35:21.709Z,46.46
2023-05-01T11:36:21.581Z,45.89
2023-05-01T11:37:21.486Z,46.09
2023-05-01T11:38:21.446Z,45.73
2023-05-01T11:39:21.303Z,45.68
2023-05-01T11:40:21.260Z,46.26
2023-05-01T11:41:21.150Z,46.52
2023-05-01T11:42:21.198Z,46.69
2023-05-01T11:43:21.012Z,45.80
2023-05-01T11:44:20.940Z,46.20
2023-05-01T11:45:20.907Z,45.97
2023-05-01T11:46:20.895Z,48.02
2023-05-01T11:47:20.892Z,47.56
2023-05-01T11:48:20.823Z,47.75
2023-05-01T11:49:20.793Z,47.80
2023-05-01T11:50:20.791Z,47.71
2023-05-01T11:51:20.803Z,48.43
2023-05-01T11:52:20.806Z,48.14
2023-05-01T11:53:20.829Z,48.37
2023-05-01T11:54:20.943Z,49.32
2023-05-01T11:55:20.789Z,50.42
2023-05-01T11:56:26.776Z,49.05
2023-05-01T11:57:20.693Z,48.59
2023-05-01T11:58:20.653Z,48.15
2023-05-01T11:59:20.564Z,48.27
2023-05-01T12:00:20.507Z,48.15
2023-05-01T12:01:20.447Z,48.29
2023-05-01T12:02:20.413Z,48.22
2023-05-01T12:03:20.563Z,48.39
2023-05-01T12:04:20.295Z,48.37
2023-05-01T12:05:20.155Z,48.98
2023-05-01T12:06:20.125Z,48.83
2023-05-01T12:07:20.050Z,48.35
2023-05-01T12:08:19.957Z,48.96
2023-05-01T12:09:19.893Z,49.29
2023-05-01T12:10:19.867Z,48.98
2023-05-01T12:11:19.784Z,49.13
2023-05-01T12:12:19.723Z,50.31
2023-05-01T12:13:19.678Z,49.10
2023-05-01T12:14:19.613Z,49.45
2023-05-01T12:15:19.552Z,49.18
2023-05-01T12:16:19.527Z,49.08
2023-05-01T12:17:19.481Z,49.12
2023-05-01T12:18:19.406Z,50.34
2023-05-01T12:19:21.037Z,50.08
2023-05-01T12:20:19.265Z,50.65
2023-05-01T12:21:19.126Z,52.19
2023-05-01T12:22:19.068Z,51.92
2023-05-01T12:23:19.011Z,55.50
2023-05-01T12:24:18.943Z,57.09
2023-05-01T12:25:18.864Z,58.27
2023-05-01T12:26:18.939Z,56.52
2023-05-01T12:27:18.745Z,56.92
2023-05-01T12:28:18.686Z,55.81
2023-05-01T12:29:18.618Z,56.39
2023-05-01T12:30:18.557Z,57.73
2023-05-01T12:31:18.502Z,56.88
2023-05-01T12:32:18.428Z,57.79
2023-05-01T12:33:18.654Z,58.55
2023-05-01T12:34:18.304Z,58.53
2023-05-01T12:35:18.195Z,60.85
2023-05-01T12:36:18.111Z,59.69
2023-05-01T12:37:18.045Z,60.04
2023-05-01T12:38:17.971Z,60.32
2023-05-01T12:39:17.862Z,60.66
2023-05-01T12:40:17.787Z,60.28
2023-05-01T12:41:17.701Z,60.53
2023-05-01T12:42:17.643Z,57.96
2023-05-01T12:43:17.531Z,57.67
2023-05-01T12:44:17.455Z,55.94
2023-05-01T12:45:17.390Z,55.13
2023-05-01T12:46:17.338Z,55.63
2023-05-01T12:47:17.254Z,55.68
2023-05-01T12:48:17.316Z,55.62
2023-05-01T12:49:17.114Z,55.70
2023-05-01T12:50:17.051Z,56.28
2023-05-01T12:51:16.993Z,55.99
2023-05-01T12:52:16.920Z,56.12